createdAt,value
2022-11-17T00:00:04.946Z,75.66
2022-11-17T00:02:32.727Z,75.58
2022-11-17T00:05:00.461Z,75.35
2022-11-17T00:07:28.217Z,75.25
2022-11-17T00:09:55.959Z,75.35
2022-11-17T00:12:41.066Z,75.50
2022-11-17T00:15:10.585Z,75.11
2022-11-17T00:17:38.307Z,75.83
2022-11-17T00:20:24.747Z,75.71
2022-11-17T00:22:52.443Z,75.75
2022-11-17T00:25:20.153Z,75.17
2022-11-17T00:27:47.852Z,75.40
2022-11-17T00:30:30.934Z,75.52
2022-11-17T00:33:20.054Z,75.52
2022-11-17T00:35:52.221Z,75.55
2022-11-17T00:38:19.949Z,75.81
2022-11-17T00:40:48.211Z,75.75
2022-11-17T00:43:15.951Z,76.00
2022-11-17T00:45:45.049Z,75.67
2022-11-17T00:48:13.788Z,75.43
2022-11-17T00:50:41.529Z,75.79
2022-11-17T00:53:09.292Z,75.98
2022-11-17T00:55:36.984Z,75.99
2022-11-17T00:58:04.821Z,75.67
2022-11-17T01:00:32.581Z,75.71
2022-11-17T01:03:01.635Z,75.56
2022-11-17T01:05:33.022Z,75.49
2022-11-17T01:08:01.078Z,75.81
2022-11-17T01:10:28.787Z,75.54
2022-11-17T01:12:56.522Z,75.84
2022-11-17T01:15:24.266Z,75.24
2022-11-17T01:17:51.976Z,75.34
2022-11-17T01:20:21.111Z,75.04
2022-11-17T01:22:48.882Z,74.99
2022-11-17T01:25:16.775Z,75.00
2022-11-17T01:27:44.482Z,75.16
2022-11-17T01:30:13.774Z,75.23
2022-11-17T01:32:41.493Z,75.21
2022-11-17T01:35:09.934Z,75.09
2022-11-17T01:37:39.024Z,75.22
2022-11-17T01:40:08.246Z,75.05
2022-11-17T01:42:35.999Z,74.80
2022-11-17T01:45:05.788Z,74.67
2022-11-17T01:47:39.926Z,74.99
2022-11-17T01:50:20.904Z,74.63
2022-11-17T01:52:52.016Z,74.85
2022-11-17T01:55:22.984Z,74.79
2022-11-17T01:57:55.282Z,74.87
2022-11-17T02:00:23.409Z,75.06
2022-11-17T02:02:52.633Z,75.00
2022-11-17T02:05:42.666Z,74.98
2022-11-17T02:08:12.781Z,74.88
2022-11-17T02:10:41.198Z,74.90
2022-11-17T02:13:10.311Z,74.72
2022-11-17T02:15:38.011Z,74.64
2022-11-17T02:18:06.553Z,74.44
2022-11-17T02:20:49.732Z,74.50
2022-11-17T02:23:44.075Z,74.85
2022-11-17T02:26:25.846Z,74.40
2022-11-17T02:29:00.856Z,74.66
2022-11-17T02:31:37.775Z,74.69
2022-11-17T02:34:15.262Z,74.80
2022-11-17T02:36:50.640Z,74.80
2022-11-17T02:39:23.370Z,75.00
2022-11-17T02:41:56.191Z,74.87
2022-11-17T02:44:29.336Z,75.26
2022-11-17T02:47:03.962Z,74.95
2022-11-17T02:49:35.865Z,74.78
2022-11-17T02:52:05.792Z,75.11
2022-11-17T02:54:34.333Z,75.05
2022-11-17T02:57:02.083Z,75.21
2022-11-17T02:59:34.557Z,75.11
2022-11-17T03:02:25.172Z,75.30
2022-11-17T03:05:09.590Z,75.21
2022-11-17T03:07:52.090Z,74.96
2022-11-17T03:10:23.622Z,75.42
2022-11-17T03:12:56.613Z,75.18
2022-11-17T03:15:33.042Z,75.11
2022-11-17T03:18:08.994Z,75.12
2022-11-17T03:20:47.075Z,75.23
2022-11-17T03:23:19.647Z,74.96
2022-11-17T03:25:54.706Z,74.92
2022-11-17T03:28:28.101Z,75.16
2022-11-17T03:30:58.406Z,74.76
2022-11-17T03:33:28.489Z,75.30
2022-11-17T03:36:02.265Z,75.12
2022-11-17T03:38:34.521Z,75.29
2022-11-17T03:41:06.799Z,75.31
2022-11-17T03:43:34.918Z,75.30
2022-11-17T03:46:09.228Z,75.51
2022-11-17T03:48:43.964Z,75.25
2022-11-17T03:51:16.111Z,75.37
2022-11-17T03:53:44.699Z,75.64
2022-11-17T03:56:25.952Z,75.70
2022-11-17T03:59:00.186Z,75.57
2022-11-17T04:01:32.111Z,75.77
2022-11-17T04:03:59.954Z,75.44
2022-11-17T04:06:27.761Z,75.79
2022-11-17T04:08:55.509Z,75.26
2022-11-17T04:11:40.796Z,75.30
2022-11-17T04:14:26.068Z,75.71
2022-11-17T04:16:55.242Z,75.69
2022-11-17T04:19:22.940Z,75.52
2022-11-17T04:21:50.696Z,75.62
2022-11-17T04:24:18.407Z,75.63
2022-11-17T04:27:02.968Z,75.77
2022-11-17T04:29:30.699Z,75.89
2022-11-17T04:31:59.776Z,76.05
2022-11-17T04:34:27.773Z,75.92
2022-11-17T04:36:55.487Z,75.86
2022-11-17T04:39:23.200Z,76.12
2022-11-17T04:41:57.404Z,76.17
2022-11-17T04:44:26.738Z,76.12
2022-11-17T04:46:55.067Z,76.33
2022-11-17T04:49:26.019Z,75.92
2022-11-17T04:51:55.041Z,76.16
2022-11-17T04:54:25.154Z,76.00
2022-11-17T04:56:54.058Z,76.27
2022-11-17T04:59:21.962Z,76.62
2022-11-17T05:01:49.910Z,76.63
2022-11-17T05:04:40.329Z,76.56
2022-11-17T05:07:10.009Z,76.53
2022-11-17T05:09:37.803Z,76.28
2022-11-17T05:12:23.270Z,76.58
2022-11-17T05:14:50.988Z,76.76
2022-11-17T05:17:17.930Z,76.88
2022-11-17T05:19:47.967Z,76.58
2022-11-17T05:22:36.551Z,76.75
2022-11-17T05:25:05.741Z,76.99
2022-11-17T05:27:34.374Z,76.28
2022-11-17T05:30:02.192Z,76.59
2022-11-17T05:32:29.916Z,76.55
2022-11-17T05:34:57.679Z,76.63
2022-11-17T05:37:26.844Z,76.12
2022-11-17T05:39:54.607Z,75.81
2022-11-17T05:42:22.342Z,75.99
2022-11-17T05:44:50.134Z,76.48
2022-11-17T05:47:17.875Z,76.39
2022-11-17T05:49:45.591Z,76.48
2022-11-17T05:52:13.304Z,76.22
2022-11-17T05:54:42.391Z,76.55
2022-11-17T05:57:13.976Z,76.81
2022-11-17T05:59:46.569Z,76.46
2022-11-17T06:02:21.798Z,76.34
2022-11-17T06:04:50.520Z,76.34
2022-11-17T06:07:19.165Z,76.56
2022-11-17T06:09:48.793Z,76.29
2022-11-17T06:12:16.354Z,76.15
2022-11-17T06:14:44.277Z,76.65
2022-11-17T06:17:22.060Z,76.49
2022-11-17T06:19:54.582Z,76.53
2022-11-17T06:22:22.381Z,77.03
2022-11-17T06:24:51.509Z,76.59
2022-11-17T06:27:19.313Z,76.74
2022-11-17T06:29:47.850Z,76.24
2022-11-17T06:32:17.007Z,76.57
2022-11-17T06:34:51.930Z,76.23
2022-11-17T06:37:23.403Z,76.33
2022-11-17T06:39:52.520Z,76.33
2022-11-17T06:42:40.303Z,76.13
2022-11-17T06:45:09.122Z,76.08
2022-11-17T06:47:36.822Z,76.47
2022-11-17T06:50:05.242Z,76.02
2022-11-17T06:52:32.957Z,75.94
2022-11-17T06:55:02.012Z,76.03
2022-11-17T06:57:30.670Z,76.22
2022-11-17T06:59:58.370Z,76.08
2022-11-17T07:02:26.141Z,76.13
2022-11-17T07:04:53.799Z,75.87
2022-11-17T07:07:21.499Z,76.27
2022-11-17T07:09:49.194Z,76.07
2022-11-17T07:12:18.272Z,75.97
2022-11-17T07:14:46.032Z,75.79
2022-11-17T07:17:13.968Z,76.25
2022-11-17T07:19:41.706Z,75.74
2022-11-17T07:22:09.494Z,76.01
2022-11-17T07:24:37.184Z,75.60
2022-11-17T07:27:06.428Z,75.01
2022-11-17T07:29:35.528Z,75.24
2022-11-17T07:32:03.246Z,75.54
2022-11-17T07:34:30.905Z,75.29
2022-11-17T07:36:59.425Z,75.19
2022-11-17T07:39:27.160Z,74.67
2022-11-17T07:41:54.841Z,74.93
2022-11-17T07:44:22.580Z,75.06
2022-11-17T07:46:51.689Z,74.63
2022-11-17T07:49:19.364Z,74.41
2022-11-17T07:51:47.122Z,74.59
2022-11-17T07:54:14.837Z,74.73
2022-11-17T07:56:42.509Z,74.32
2022-11-17T07:59:10.411Z,74.27
2022-11-17T08:01:38.432Z,73.87
2022-11-17T08:04:07.588Z,74.17
2022-11-17T08:06:35.292Z,73.92
2022-11-17T08:09:03.055Z,73.25
2022-11-17T08:11:30.725Z,72.83
2022-11-17T08:13:59.095Z,73.44
2022-11-17T08:16:30.622Z,73.00
2022-11-17T08:18:58.525Z,72.84
2022-11-17T08:21:27.772Z,72.99
2022-11-17T08:23:56.216Z,73.21
2022-11-17T08:26:25.530Z,72.94
2022-11-17T08:28:58.117Z,72.57
2022-11-17T08:31:26.837Z,72.36
2022-11-17T08:33:54.620Z,72.55
2022-11-17T08:36:22.375Z,72.41
2022-11-17T08:38:51.496Z,72.27
2022-11-17T08:41:19.752Z,72.05
2022-11-17T08:43:47.421Z,72.07
2022-11-17T08:46:15.501Z,71.96
2022-11-17T08:48:43.216Z,72.38
2022-11-17T08:51:12.898Z,72.27
2022-11-17T08:53:40.432Z,72.07
2022-11-17T08:56:11.169Z,72.34
2022-11-17T08:58:42.034Z,72.01
2022-11-17T09:01:10.234Z,72.62
2022-11-17T09:03:38.442Z,72.27
2022-11-17T09:06:07.003Z,71.94
2022-11-17T09:08:50.240Z,72.06
2022-11-17T09:11:20.774Z,72.12
2022-11-17T09:13:48.486Z,72.03
2022-11-17T09:16:17.319Z,72.02
2022-11-17T09:18:45.205Z,72.50
2022-11-17T09:21:15.091Z,73.03
2022-11-17T09:23:43.605Z,72.44
2022-11-17T09:26:13.794Z,72.59
2022-11-17T09:28:43.058Z,72.52
2022-11-17T09:31:12.759Z,72.03
2022-11-17T09:33:40.444Z,72.62
2022-11-17T09:36:08.950Z,72.42
2022-11-17T09:38:37.545Z,72.05
2022-11-17T09:41:20.245Z,71.98
2022-11-17T09:43:55.639Z,73.00
2022-11-17T09:46:31.007Z,72.43
2022-11-17T09:49:08.799Z,73.13
2022-11-17T09:51:41.075Z,72.59
2022-11-17T09:54:16.723Z,72.63
2022-11-17T09:56:47.406Z,73.11
2022-11-17T09:59:19.193Z,72.63
2022-11-17T10:01:46.959Z,72.93
2022-11-17T10:04:18.546Z,73.16
2022-11-17T10:06:49.424Z,73.18
2022-11-17T10:09:25.675Z,72.64
2022-11-17T10:11:54.877Z,72.70
2022-11-17T10:14:24.430Z,72.95
2022-11-17T10:16:54.212Z,73.06
2022-11-17T10:19:24.337Z,72.43
2022-11-17T10:21:54.201Z,72.27
2022-11-17T10:24:35.348Z,72.50
2022-11-17T10:27:04.344Z,72.59
2022-11-17T10:29:33.721Z,72.20
2022-11-17T10:32:04.346Z,72.98
2022-11-17T10:34:40.115Z,72.08
2022-11-17T10:37:25.408Z,72.26
2022-11-17T10:40:13.352Z,72.60
2022-11-17T10:42:44.129Z,72.02
2022-11-17T10:45:19.008Z,72.36
2022-11-17T10:47:46.913Z,72.01
2022-11-17T10:50:26.851Z,71.60
2022-11-17T10:53:17.049Z,72.04
2022-11-17T10:55:45.420Z,72.31
2022-11-17T10:58:24.061Z,72.22
2022-11-17T11:00:57.149Z,72.53
2022-11-17T11:03:28.247Z,72.25
2022-11-17T11:05:58.499Z,72.24
2022-11-17T11:08:30.688Z,72.18
2022-11-17T11:11:00.892Z,72.01
2022-11-17T11:13:34.103Z,72.42
2022-11-17T11:16:03.535Z,72.36
2022-11-17T11:18:32.972Z,71.73
2022-11-17T11:21:11.201Z,71.86
2022-11-17T11:23:46.713Z,72.17
2022-11-17T11:26:26.056Z,72.38
2022-11-17T11:29:06.218Z,72.13
2022-11-17T11:31:45.369Z,72.31
2022-11-17T11:34:29.272Z,72.14
2022-11-17T11:37:01.364Z,71.84
2022-11-17T11:39:39.882Z,72.51
2022-11-17T11:42:34.750Z,72.18
2022-11-17T11:45:19.246Z,72.21
2022-11-17T11:48:03.769Z,71.88
2022-11-17T11:50:41.486Z,71.40
2022-11-17T11:53:17.323Z,72.26
2022-11-17T11:55:47.828Z,71.99
2022-11-17T11:58:21.560Z,72.16
2022-11-17T12:00:51.171Z,71.73
2022-11-17T12:03:25.247Z,71.59
2022-11-17T12:06:30.689Z,70.97
2022-11-17T12:09:10.486Z,71.44
2022-11-17T12:11:58.742Z,71.21
2022-11-17T12:14:27.327Z,71.22
2022-11-17T12:17:02.988Z,71.27
2022-11-17T12:19:53.920Z,70.92
2022-11-17T12:23:09.029Z,71.36
2022-11-17T12:25:50.491Z,71.20
2022-11-17T12:28:35.688Z,71.57
2022-11-17T12:31:10.170Z,70.90
2022-11-17T12:34:10.934Z,71.55
2022-11-17T12:36:40.309Z,71.22
2022-11-17T12:39:48.094Z,71.56
2022-11-17T12:42:15.771Z,71.75
2022-11-17T12:44:44.961Z,71.83
2022-11-17T12:47:18.157Z,71.29
2022-11-17T12:50:00.665Z,71.33
2022-11-17T12:52:36.137Z,71.35
2022-11-17T12:55:13.807Z,71.32
2022-11-17T12:57:46.411Z,70.87
2022-11-17T13:00:20.926Z,71.10
2022-11-17T13:02:58.440Z,71.13
2022-11-17T13:05:27.889Z,71.50
2022-11-17T13:08:27.319Z,71.10
2022-11-17T13:11:04.676Z,71.25
2022-11-17T13:13:34.928Z,70.88
2022-11-17T13:16:05.756Z,71.34
2022-11-17T13:18:37.562Z,71.56
2022-11-17T13:21:16.163Z,71.23
2022-11-17T13:23:46.293Z,71.84
2022-11-17T13:26:22.560Z,71.43
2022-11-17T13:29:03.682Z,71.30
2022-11-17T13:31:31.536Z,71.89
2022-11-17T13:34:05.294Z,71.61
2022-11-17T13:36:33.533Z,71.25
2022-11-17T13:39:03.684Z,71.45
2022-11-17T13:41:38.084Z,71.47
2022-11-17T13:44:08.872Z,71.13
2022-11-17T13:46:36.739Z,71.45
2022-11-17T13:49:34.146Z,71.12
2022-11-17T13:52:06.714Z,71.02
2022-11-17T13:54:39.802Z,71.02
2022-11-17T13:57:16.508Z,71.44
2022-11-17T13:59:49.097Z,70.68
2022-11-17T14:02:36.851Z,71.17
2022-11-17T14:05:25.285Z,70.83
2022-11-17T14:08:06.782Z,71.96
2022-11-17T14:10:42.467Z,71.24
2022-11-17T14:13:37.379Z,71.21
2022-11-17T14:16:11.810Z,71.75
2022-11-17T14:18:44.073Z,71.65
2022-11-17T14:21:23.157Z,71.24
2022-11-17T14:24:17.773Z,71.24
2022-11-17T14:26:53.493Z,71.44
2022-11-17T14:29:26.117Z,71.51
2022-11-17T14:31:53.935Z,72.32
2022-11-17T14:34:21.994Z,71.93
2022-11-17T14:36:57.389Z,71.41
2022-11-17T14:39:31.440Z,71.88
2022-11-17T14:42:00.828Z,71.70
2022-11-17T14:44:28.886Z,71.53
2022-11-17T14:46:56.820Z,71.85
2022-11-17T14:49:25.214Z,72.07
2022-11-17T14:51:55.228Z,71.99
2022-11-17T14:54:23.050Z,71.86
2022-11-17T14:56:50.816Z,71.81
2022-11-17T14:59:20.375Z,71.82
2022-11-17T15:01:48.210Z,71.56
2022-11-17T15:04:48.117Z,72.09
2022-11-17T15:07:04.860Z,72.11
2022-11-17T15:09:32.996Z,72.40
2022-11-17T15:12:00.839Z,72.76
2022-11-17T15:14:30.056Z,73.55
2022-11-17T15:16:57.706Z,74.20
2022-11-17T15:19:25.468Z,74.75
2022-11-17T15:21:53.287Z,75.20
2022-11-17T15:24:22.773Z,75.53
2022-11-17T15:26:50.520Z,75.63
2022-11-17T15:29:18.524Z,75.88
2022-11-17T15:31:48.035Z,76.25
2022-11-17T15:34:20.168Z,76.56
2022-11-17T15:36:48.978Z,76.66
2022-11-17T15:39:17.307Z,76.50
2022-11-17T15:41:45.258Z,76.50
2022-11-17T15:44:13.507Z,76.43
2022-11-17T15:46:46.911Z,76.61
2022-11-17T15:49:17.207Z,76.31
2022-11-17T15:51:45.392Z,76.62
2022-11-17T15:54:20.018Z,76.40
2022-11-17T15:56:48.437Z,76.12
2022-11-17T15:59:16.621Z,76.25
2022-11-17T16:01:44.894Z,76.07
2022-11-17T16:04:14.736Z,75.78
2022-11-17T16:06:45.934Z,75.99
2022-11-17T16:09:15.306Z,76.33
2022-11-17T16:11:43.496Z,76.16
2022-11-17T16:14:11.703Z,76.88
2022-11-17T16:16:40.345Z,77.07
2022-11-17T16:19:08.399Z,77.71
2022-11-17T16:21:36.076Z,77.86
2022-11-17T16:24:05.390Z,78.20
2022-11-17T16:26:33.101Z,79.00
2022-11-17T16:29:02.353Z,78.38
2022-11-17T16:31:32.149Z,78.69
2022-11-17T16:34:01.486Z,79.33
2022-11-17T16:36:35.985Z,79.17
2022-11-17T16:39:07.445Z,79.55
2022-11-17T16:41:36.666Z,79.81
2022-11-17T16:44:08.804Z,81.23
2022-11-17T16:46:36.818Z,81.53
2022-11-17T16:49:06.505Z,82.28
2022-11-17T16:51:34.775Z,82.05
2022-11-17T16:54:05.657Z,81.47
2022-11-17T16:56:34.707Z,81.21
2022-11-17T16:59:02.694Z,81.16
2022-11-17T17:01:32.341Z,81.55
2022-11-17T17:04:01.108Z,81.84
2022-11-17T17:06:29.349Z,82.24
2022-11-17T17:08:58.184Z,82.04
2022-11-17T17:11:29.264Z,82.15
2022-11-17T17:13:57.353Z,82.25
2022-11-17T17:16:25.738Z,81.76
2022-11-17T17:18:56.247Z,81.45
2022-11-17T17:21:24.326Z,81.55
2022-11-17T17:23:52.162Z,81.85
2022-11-17T17:26:22.365Z,81.29
2022-11-17T17:28:52.989Z,80.81
2022-11-17T17:31:23.086Z,81.33
2022-11-17T17:33:51.829Z,81.29
2022-11-17T17:36:20.973Z,81.93
2022-11-17T17:38:54.913Z,81.24
2022-11-17T17:41:24.477Z,81.44
2022-11-17T17:43:57.720Z,81.86
2022-11-17T17:46:25.895Z,81.45
2022-11-17T17:48:53.709Z,82.43
2022-11-17T17:51:24.892Z,82.70
2022-11-17T17:53:53.243Z,83.16
2022-11-17T17:56:22.543Z,83.72
2022-11-17T17:58:51.714Z,83.26
2022-11-17T18:01:22.649Z,83.99
2022-11-17T18:03:53.640Z,83.53
2022-11-17T18:06:22.860Z,84.46
2022-11-17T18:08:50.834Z,84.20
2022-11-17T18:11:20.363Z,84.57
2022-11-17T18:13:48.831Z,83.96
2022-11-17T18:16:18.242Z,84.46
2022-11-17T18:18:47.333Z,84.27
2022-11-17T18:21:16.780Z,84.62
2022-11-17T18:23:44.947Z,84.77
2022-11-17T18:26:15.568Z,84.70
2022-11-17T18:28:44.860Z,84.78
2022-11-17T18:31:12.984Z,85.52
2022-11-17T18:33:40.680Z,85.45
2022-11-17T18:36:11.407Z,85.61
2022-11-17T18:38:39.644Z,84.89
2022-11-17T18:41:08.806Z,84.58
2022-11-17T18:43:37.444Z,85.37
2022-11-17T18:46:06.914Z,84.90
2022-11-17T18:48:36.581Z,84.91
2022-11-17T18:51:22.556Z,84.25
2022-11-17T18:53:52.808Z,84.85
2022-11-17T18:56:22.446Z,84.70
2022-11-17T18:58:50.029Z,83.50
2022-11-17T19:01:19.467Z,84.50
2022-11-17T19:03:49.210Z,84.85
2022-11-17T19:06:18.164Z,85.23
2022-11-17T19:08:47.324Z,84.85
2022-11-17T19:11:17.913Z,84.84
2022-11-17T19:13:46.603Z,84.12
2022-11-17T19:16:16.391Z,84.51
2022-11-17T19:18:46.131Z,84.75
2022-11-17T19:21:15.678Z,85.13
2022-11-17T19:23:49.661Z,84.86
2022-11-17T19:26:22.230Z,84.10
2022-11-17T19:28:50.956Z,84.75
2022-11-17T19:31:20.259Z,84.72
2022-11-17T19:33:49.305Z,84.70
2022-11-17T19:36:19.353Z,84.90
2022-11-17T19:38:49.769Z,84.55
2022-11-17T19:41:21.197Z,85.01
2022-11-17T19:43:49.531Z,84.90
2022-11-17T19:46:18.425Z,84.52
2022-11-17T19:48:46.484Z,85.37
2022-11-17T19:51:19.703Z,84.59
2022-11-17T19:53:47.644Z,84.66
2022-11-17T19:56:15.780Z,85.00
2022-11-17T19:58:45.992Z,84.48
2022-11-17T20:01:15.454Z,84.39
2022-11-17T20:03:43.581Z,84.68
2022-11-17T20:06:12.839Z,85.97
2022-11-17T20:08:40.870Z,84.90
2022-11-17T20:11:10.656Z,84.75
2022-11-17T20:13:39.134Z,84.71
2022-11-17T20:16:12.510Z,85.67
2022-11-17T20:18:40.997Z,85.00
2022-11-17T20:21:09.468Z,85.22
2022-11-17T20:23:38.641Z,84.24
2022-11-17T20:26:07.294Z,84.17
2022-11-17T20:28:36.398Z,83.97
2022-11-17T20:31:09.821Z,84.11
2022-11-17T20:33:37.937Z,84.75
2022-11-17T20:36:06.688Z,84.65
2022-11-17T20:38:35.847Z,83.94
2022-11-17T20:41:03.904Z,83.52
2022-11-17T20:43:32.130Z,83.69
2022-11-17T20:46:00.243Z,84.29
2022-11-17T20:48:30.243Z,83.62
2022-11-17T20:50:59.034Z,84.08
2022-11-17T20:53:27.412Z,83.59
2022-11-17T20:55:57.007Z,83.51
2022-11-17T20:58:24.537Z,83.78
2022-11-17T21:00:52.277Z,83.02
2022-11-17T21:03:20.356Z,82.94
2022-11-17T21:05:59.230Z,83.39
2022-11-17T21:08:28.645Z,83.25
2022-11-17T21:10:56.982Z,83.13
2022-11-17T21:13:25.501Z,82.93
2022-11-17T21:16:04.126Z,82.69
2022-11-17T21:18:31.888Z,83.18
2022-11-17T21:21:02.439Z,82.24
2022-11-17T21:23:30.146Z,81.70
2022-11-17T21:25:57.890Z,82.71
2022-11-17T21:28:25.558Z,82.68
2022-11-17T21:30:53.324Z,82.13
2022-11-17T21:33:21.007Z,82.33
2022-11-17T21:35:48.766Z,82.95
2022-11-17T21:38:17.825Z,82.27
2022-11-17T21:40:45.526Z,81.99
2022-11-17T21:43:13.216Z,81.62
2022-11-17T21:45:40.927Z,81.58
2022-11-17T21:48:08.602Z,82.02
2022-11-17T21:50:36.333Z,82.21
2022-11-17T21:53:04.010Z,81.97
2022-11-17T21:55:33.041Z,80.69
2022-11-17T21:58:00.774Z,81.46
2022-11-17T22:00:29.527Z,81.51
2022-11-17T22:02:57.230Z,80.78
2022-11-17T22:05:25.048Z,81.13
2022-11-17T22:07:52.768Z,81.72
2022-11-17T22:10:20.471Z,82.44
2022-11-17T22:12:49.571Z,81.60
2022-11-17T22:15:17.244Z,81.92
2022-11-17T22:17:45.141Z,81.00
2022-11-17T22:20:12.920Z,81.25
2022-11-17T22:22:40.686Z,80.60
2022-11-17T22:25:30.273Z,80.98
2022-11-17T22:27:57.972Z,81.56
2022-11-17T22:30:25.635Z,81.13
2022-11-17T22:32:53.319Z,80.90
2022-11-17T22:35:21.055Z,81.75
2022-11-17T22:37:49.433Z,80.45
2022-11-17T22:40:17.340Z,80.87
2022-11-17T22:42:45.054Z,81.18
2022-11-17T22:45:14.242Z,81.51
2022-11-17T22:47:42.180Z,81.38
2022-11-17T22:50:10.818Z,81.79
2022-11-17T22:52:38.793Z,80.81
2022-11-17T22:55:07.237Z,81.39
2022-11-17T22:57:34.960Z,80.78
2022-11-17T23:00:02.696Z,81.05
2022-11-17T23:02:31.849Z,81.26
2022-11-17T23:04:59.560Z,81.88
2022-11-17T23:07:27.351Z,81.24
2022-11-17T23:09:55.213Z,81.61
2022-11-17T23:12:22.899Z,81.94
2022-11-17T23:14:50.567Z,81.36
2022-11-17T23:17:18.313Z,81.31
2022-11-17T23:19:47.442Z,81.40
2022-11-17T23:22:15.163Z,81.37
2022-11-17T23:24:42.873Z,80.86
2022-11-17T23:27:10.808Z,81.75
2022-11-17T23:29:38.616Z,81.64
2022-11-17T23:32:06.771Z,81.85
2022-11-17T23:34:34.528Z,81.58
2022-11-17T23:37:04.209Z,81.68
2022-11-17T23:39:32.375Z,81.28
2022-11-17T23:42:00.047Z,81.36
2022-11-17T23:44:28.095Z,81.09
2022-11-17T23:46:55.799Z,81.34
2022-11-17T23:49:23.665Z,81.79
2022-11-17T23:51:51.341Z,81.59
2022-11-17T23:54:20.418Z,82.64
2022-11-17T23:56:50.440Z,82.26
2022-11-17T23:59:18.340Z,82.36
